sensor_id;sensor_type;location;lat;lon;timestamp;P1;durP1;ratioP1;P2;durP2;ratioP2
53890;SDS011;41337;51.400;-2.342;2023-07-13T00:03:46;5.65;;;1.85;;
53890;SDS011;41337;51.400;-2.342;2023-07-13T00:08:47;3.70;;;1.55;;
53890;SDS011;41337;51.400;-2.342;2023-07-13T00:13:49;3.78;;;1.80;;
53890;SDS011;41337;51.400;-2.342;2023-07-13T00:18:51;6.22;;;1.90;;
53890;SDS011;41337;51.400;-2.342;2023-07-13T00:23:52;3.22;;;1.88;;
53890;SDS011;41337;51.400;-2.342;2023-07-13T00:28:53;5.13;;;1.75;;
53890;SDS011;41337;51.400;-2.342;2023-07-13T00:33:54;2.60;;;1.77;;
53890;SDS011;41337;51.400;-2.342;2023-07-13T00:38:55;5.40;;;1.92;;
53890;SDS011;41337;51.400;-2.342;2023-07-13T00:43:56;3.42;;;1.75;;
53890;SDS011;41337;51.400;-2.342;2023-07-13T00:48:58;3.38;;;1.60;;
53890;SDS011;41337;51.400;-2.342;2023-07-13T00:54:04;3.00;;;2.13;;
53890;SDS011;41337;51.400;-2.342;2023-07-13T00:59:07;4.82;;;2.17;;
53890;SDS011;41337;51.400;-2.342;2023-07-13T01:04:11;5.55;;;1.90;;
53890;SDS011;41337;51.400;-2.342;2023-07-13T01:09:13;4.28;;;2.25;;
53890;SDS011;41337;51.400;-2.342;2023-07-13T01:14:16;4.07;;;1.83;;
53890;SDS011;41337;51.400;-2.342;2023-07-13T01:19:36;8.38;;;2.60;;
53890;SDS011;41337;51.400;-2.342;2023-07-13T01:29:43;5.55;;;2.38;;
53890;SDS011;41337;51.400;-2.342;2023-07-13T01:34:47;5.95;;;2.08;;
53890;SDS011;41337;51.400;-2.342;2023-07-13T01:39:48;2.65;;;2.00;;
53890;SDS011;41337;51.400;-2.342;2023-07-13T01:44:49;3.97;;;2.10;;
53890;SDS011;41337;51.400;-2.342;2023-07-13T01:49:50;9.15;;;2.20;;
53890;SDS011;41337;51.400;-2.342;2023-07-13T01:54:52;5.65;;;2.47;;
53890;SDS011;41337;51.400;-2.342;2023-07-13T01:59:52;5.80;;;1.90;;
53890;SDS011;41337;51.400;-2.342;2023-07-13T02:04:53;6.35;;;2.25;;
53890;SDS011;41337;51.400;-2.342;2023-07-13T02:09:54;7.07;;;2.10;;
53890;SDS011;41337;51.400;-2.342;2023-07-13T02:14:55;4.97;;;2.10;;
53890;SDS011;41337;51.400;-2.342;2023-07-13T02:19:56;5.18;;;2.20;;
53890;SDS011;41337;51.400;-2.342;2023-07-13T02:24:57;4.18;;;2.38;;
53890;SDS011;41337;51.400;-2.342;2023-07-13T02:29:57;7.30;;;1.90;;
53890;SDS011;41337;51.400;-2.342;2023-07-13T02:34:58;6.43;;;2.35;;
53890;SDS011;41337;51.400;-2.342;2023-07-13T02:39:59;6.78;;;2.72;;
53890;SDS011;41337;51.400;-2.342;2023-07-13T02:45:00;4.07;;;2.55;;
53890;SDS011;41337;51.400;-2.342;2023-07-13T02:50:01;5.03;;;2.08;;
53890;SDS011;41337;51.400;-2.342;2023-07-13T02:55:03;3.67;;;1.90;;
53890;SDS011;41337;51.400;-2.342;2023-07-13T03:00:04;3.80;;;2.10;;
53890;SDS011;41337;51.400;-2.342;2023-07-13T03:05:06;5.30;;;2.08;;
53890;SDS011;41337;51.400;-2.342;2023-07-13T03:10:08;6.13;;;2.30;;
53890;SDS011;41337;51.400;-2.342;2023-07-13T03:15:18;4.70;;;2.28;;
53890;SDS011;41337;51.400;-2.342;2023-07-13T03:20:19;4.88;;;2.30;;
53890;SDS011;41337;51.400;-2.342;2023-07-13T03:25:22;8.25;;;2.88;;
53890;SDS011;41337;51.400;-2.342;2023-07-13T03:30:22;8.55;;;2.33;;
53890;SDS011;41337;51.400;-2.342;2023-07-13T03:35:35;4.93;;;2.08;;
53890;SDS011;41337;51.400;-2.342;2023-07-13T03:40:39;4.60;;;2.67;;
53890;SDS011;41337;51.400;-2.342;2023-07-13T03:45:40;4.88;;;2.50;;
53890;SDS011;41337;51.400;-2.342;2023-07-13T03:50:41;6.72;;;2.72;;
53890;SDS011;41337;51.400;-2.342;2023-07-13T03:55:42;5.03;;;2.40;;
53890;SDS011;41337;51.400;-2.342;2023-07-13T04:00:44;4.53;;;2.40;;
53890;SDS011;41337;51.400;-2.342;2023-07-13T04:05:45;6.22;;;2.67;;
53890;SDS011;41337;51.400;-2.342;2023-07-13T04:10:46;6.03;;;2.25;;
53890;SDS011;41337;51.400;-2.342;2023-07-13T04:15:47;6.10;;;2.40;;
53890;SDS011;41337;51.400;-2.342;2023-07-13T04:20:48;4.97;;;2.20;;
53890;SDS011;41337;51.400;-2.342;2023-07-13T04:25:51;4.28;;;2.60;;
53890;SDS011;41337;51.400;-2.342;2023-07-13T04:30:53;5.90;;;3.05;;
53890;SDS011;41337;51.400;-2.342;2023-07-13T04:35:55;3.65;;;2.63;;
53890;SDS011;41337;51.400;-2.342;2023-07-13T04:40:58;4.53;;;3.05;;
53890;SDS011;41337;51.400;-2.342;2023-07-13T04:46:06;5.55;;;3.35;;
53890;SDS011;41337;51.400;-2.342;2023-07-13T04:51:09;4.00;;;2.58;;
53890;SDS011;41337;51.400;-2.342;2023-07-13T04:56:11;5.60;;;3.33;;
53890;SDS011;41337;51.400;-2.342;2023-07-13T05:01:21;6.35;;;2.70;;
53890;SDS011;41337;51.400;-2.342;2023-07-13T05:06:21;9.90;;;2.83;;
53890;SDS011;41337;51.400;-2.342;2023-07-13T05:11:22;4.68;;;2.95;;
53890;SDS011;41337;51.400;-2.342;2023-07-13T05:16:24;8.43;;;2.53;;
53890;SDS011;41337;51.400;-2.342;2023-07-13T05:21:25;3.83;;;2.42;;
53890;SDS011;41337;51.400;-2.342;2023-07-13T05:26:25;4.07;;;2.38;;
53890;SDS011;41337;51.400;-2.342;2023-07-13T05:31:27;7.88;;;2.40;;
53890;SDS011;41337;51.400;-2.342;2023-07-13T05:36:28;6.13;;;2.10;;
53890;SDS011;41337;51.400;-2.342;2023-07-13T05:41:29;9.45;;;2.10;;
53890;SDS011;41337;51.400;-2.342;2023-07-13T05:46:29;7.00;;;2.45;;
53890;SDS011;41337;51.400;-2.342;2023-07-13T05:51:31;7.05;;;2.33;;
53890;SDS011;41337;51.400;-2.342;2023-07-13T05:56:31;4.38;;;2.40;;
53890;SDS011;41337;51.400;-2.342;2023-07-13T06:01:32;2.45;;;2.25;;
53890;SDS011;41337;51.400;-2.342;2023-07-13T06:06:33;4.82;;;2.63;;
53890;SDS011;41337;51.400;-2.342;2023-07-13T06:11:34;5.70;;;2.08;;
53890;SDS011;41337;51.400;-2.342;2023-07-13T06:16:35;6.32;;;2.33;;
53890;SDS011;41337;51.400;-2.342;2023-07-13T06:21:36;5.97;;;2.17;;
53890;SDS011;41337;51.400;-2.342;2023-07-13T06:26:36;5.53;;;2.13;;
53890;SDS011;41337;51.400;-2.342;2023-07-13T06:31:37;6.55;;;2.10;;
53890;SDS011;41337;51.400;-2.342;2023-07-13T06:36:38;7.45;;;2.40;;
53890;SDS011;41337;51.400;-2.342;2023-07-13T06:41:39;5.57;;;2.17;;
53890;SDS011;41337;51.400;-2.342;2023-07-13T06:46:40;6.43;;;2.08;;
53890;SDS011;41337;51.400;-2.342;2023-07-13T06:51:40;3.63;;;1.63;;
53890;SDS011;41337;51.400;-2.342;2023-07-13T06:56:41;3.20;;;2.00;;
53890;SDS011;41337;51.400;-2.342;2023-07-13T07:01:42;7.30;;;1.63;;
53890;SDS011;41337;51.400;-2.342;2023-07-13T07:06:43;7.95;;;1.73;;
53890;SDS011;41337;51.400;-2.342;2023-07-13T07:11:43;2.00;;;1.35;;
53890;SDS011;41337;51.400;-2.342;2023-07-13T07:16:44;3.47;;;1.70;;
53890;SDS011;41337;51.400;-2.342;2023-07-13T07:21:45;6.80;;;2.20;;
53890;SDS011;41337;51.400;-2.342;2023-07-13T07:26:47;6.13;;;1.60;;
53890;SDS011;41337;51.400;-2.342;2023-07-13T07:31:48;5.63;;;1.75;;
53890;SDS011;41337;51.400;-2.342;2023-07-13T07:36:49;5.55;;;2.50;;
53890;SDS011;41337;51.400;-2.342;2023-07-13T07:41:49;4.30;;;2.25;;
53890;SDS011;41337;51.400;-2.342;2023-07-13T07:46:50;4.90;;;2.95;;
53890;SDS011;41337;51.400;-2.342;2023-07-13T07:51:51;4.13;;;2.50;;
53890;SDS011;41337;51.400;-2.342;2023-07-13T07:56:52;4.25;;;3.00;;
53890;SDS011;41337;51.400;-2.342;2023-07-13T08:01:53;3.33;;;2.80;;
53890;SDS011;41337;51.400;-2.342;2023-07-13T08:06:54;6.10;;;3.00;;
53890;SDS011;41337;51.400;-2.342;2023-07-13T08:11:56;3.38;;;2.70;;
53890;SDS011;41337;51.400;-2.342;2023-07-13T08:16:57;3.67;;;2.90;;
53890;SDS011;41337;51.400;-2.342;2023-07-13T08:21:58;6.85;;;3.75;;
53890;SDS011;41337;51.400;-2.342;2023-07-13T08:26:59;5.13;;;2.80;;
53890;SDS011;41337;51.400;-2.342;2023-07-13T08:32:00;3.20;;;2.20;;
53890;SDS011;41337;51.400;-2.342;2023-07-13T08:37:01;3.08;;;2.13;;
53890;SDS011;41337;51.400;-2.342;2023-07-13T08:42:05;6.22;;;2.67;;
53890;SDS011;41337;51.400;-2.342;2023-07-13T08:47:26;5.25;;;2.00;;
53890;SDS011;41337;51.400;-2.342;2023-07-13T08:52:36;4.57;;;1.70;;
53890;SDS011;41337;51.400;-2.342;2023-07-13T09:03:37;4.85;;;1.80;;
53890;SDS011;41337;51.400;-2.342;2023-07-13T09:09:06;2.67;;;1.10;;
53890;SDS011;41337;51.400;-2.342;2023-07-13T09:19:39;1.58;;;0.80;;
53890;SDS011;41337;51.400;-2.342;2023-07-13T09:24:47;2.20;;;1.00;;
53890;SDS011;41337;51.400;-2.342;2023-07-13T09:30:02;3.00;;;1.30;;
53890;SDS011;41337;51.400;-2.342;2023-07-13T09:35:16;5.38;;;1.00;;
53890;SDS011;41337;51.400;-2.342;2023-07-13T09:40:25;1.03;;;0.83;;
53890;SDS011;41337;51.400;-2.342;2023-07-13T09:45:34;1.20;;;0.80;;
53890;SDS011;41337;51.400;-2.342;2023-07-13T09:50:49;3.08;;;0.75;;
53890;SDS011;41337;51.400;-2.342;2023-07-13T09:55:56;10.20;;;1.23;;
53890;SDS011;41337;51.400;-2.342;2023-07-13T10:01:01;3.72;;;0.88;;
53890;SDS011;41337;51.400;-2.342;2023-07-13T10:06:12;1.52;;;0.70;;
53890;SDS011;41337;51.400;-2.342;2023-07-13T10:11:22;3.95;;;0.47;;
53890;SDS011;41337;51.400;-2.342;2023-07-13T10:16:31;0.85;;;0.70;;
53890;SDS011;41337;51.400;-2.342;2023-07-13T10:21:50;2.03;;;0.63;;
53890;SDS011;41337;51.400;-2.342;2023-07-13T10:32:15;3.05;;;0.80;;
53890;SDS011;41337;51.400;-2.342;2023-07-13T10:37:26;3.55;;;0.80;;
53890;SDS011;41337;51.400;-2.342;2023-07-13T10:42:39;2.28;;;0.73;;
53890;SDS011;41337;51.400;-2.342;2023-07-13T10:47:43;1.23;;;0.60;;
53890;SDS011;41337;51.400;-2.342;2023-07-13T10:52:49;2.58;;;0.70;;
53890;SDS011;41337;51.400;-2.342;2023-07-13T10:57:54;1.02;;;0.90;;
53890;SDS011;41337;51.400;-2.342;2023-07-13T11:03:02;2.53;;;0.63;;
53890;SDS011;41337;51.400;-2.342;2023-07-13T11:25:21;1.50;;;0.90;;
53890;SDS011;41337;51.400;-2.342;2023-07-13T11:29:52;4.20;;;0.95;;
53890;SDS011;41337;51.400;-2.342;2023-07-13T11:35:44;4.57;;;0.80;;
53890;SDS011;41337;51.400;-2.342;2023-07-13T11:40:46;1.50;;;0.75;;
53890;SDS011;41337;51.400;-2.342;2023-07-13T11:46:11;1.80;;;0.70;;
53890;SDS011;41337;51.400;-2.342;2023-07-13T11:51:35;4.32;;;1.35;;
53890;SDS011;41337;51.400;-2.342;2023-07-13T11:56:36;2.55;;;0.90;;
53890;SDS011;41337;51.400;-2.342;2023-07-13T12:01:41;2.00;;;0.90;;
53890;SDS011;41337;51.400;-2.342;2023-07-13T12:06:45;0.73;;;0.67;;
53890;SDS011;41337;51.400;-2.342;2023-07-13T12:11:46;2.30;;;0.70;;
53890;SDS011;41337;51.400;-2.342;2023-07-13T12:16:47;2.28;;;0.95;;
53890;SDS011;41337;51.400;-2.342;2023-07-13T12:21:49;1.35;;;0.60;;
53890;SDS011;41337;51.400;-2.342;2023-07-13T12:26:54;1.50;;;0.80;;
53890;SDS011;41337;51.400;-2.342;2023-07-13T12:32:08;5.38;;;0.95;;
53890;SDS011;41337;51.400;-2.342;2023-07-13T12:37:11;4.05;;;1.00;;
53890;SDS011;41337;51.400;-2.342;2023-07-13T12:47:30;2.33;;;0.70;;
53890;SDS011;41337;51.400;-2.342;2023-07-13T12:52:43;1.75;;;0.90;;
53890;SDS011;41337;51.400;-2.342;2023-07-13T12:57:49;2.55;;;1.00;;
53890;SDS011;41337;51.400;-2.342;2023-07-13T13:02:53;1.88;;;0.82;;
53890;SDS011;41337;51.400;-2.342;2023-07-13T13:07:56;1.90;;;0.60;;
53890;SDS011;41337;51.400;-2.342;2023-07-13T13:12:58;3.45;;;0.88;;
53890;SDS011;41337;51.400;-2.342;2023-07-13T13:17:59;4.85;;;0.85;;
53890;SDS011;41337;51.400;-2.342;2023-07-13T13:23:00;1.77;;;1.00;;
53890;SDS011;41337;51.400;-2.342;2023-07-13T13:28:01;2.95;;;0.73;;
53890;SDS011;41337;51.400;-2.342;2023-07-13T13:33:09;2.83;;;0.80;;
53890;SDS011;41337;51.400;-2.342;2023-07-13T13:38:13;4.15;;;1.00;;
53890;SDS011;41337;51.400;-2.342;2023-07-13T13:43:20;2.75;;;0.90;;
53890;SDS011;41337;51.400;-2.342;2023-07-13T13:48:29;2.70;;;0.73;;
53890;SDS011;41337;51.400;-2.342;2023-07-13T13:53:32;1.88;;;0.68;;
53890;SDS011;41337;51.400;-2.342;2023-07-13T13:58:33;3.45;;;0.73;;
53890;SDS011;41337;51.400;-2.342;2023-07-13T14:03:34;4.95;;;0.80;;
53890;SDS011;41337;51.400;-2.342;2023-07-13T14:08:35;5.03;;;1.00;;
53890;SDS011;41337;51.400;-2.342;2023-07-13T14:13:41;2.25;;;0.85;;
53890;SDS011;41337;51.400;-2.342;2023-07-13T14:18:47;2.53;;;0.70;;
53890;SDS011;41337;51.400;-2.342;2023-07-13T14:23:49;2.05;;;0.93;;
53890;SDS011;41337;51.400;-2.342;2023-07-13T14:28:51;5.05;;;1.08;;
53890;SDS011;41337;51.400;-2.342;2023-07-13T14:33:57;2.55;;;0.88;;
53890;SDS011;41337;51.400;-2.342;2023-07-13T14:38:58;5.80;;;1.58;;
53890;SDS011;41337;51.400;-2.342;2023-07-13T14:44:01;5.82;;;1.60;;
53890;SDS011;41337;51.400;-2.342;2023-07-13T14:49:07;3.22;;;1.58;;
53890;SDS011;41337;51.400;-2.342;2023-07-13T14:54:16;3.92;;;1.60;;
53890;SDS011;41337;51.400;-2.342;2023-07-13T14:59:18;3.00;;;1.52;;
53890;SDS011;41337;51.400;-2.342;2023-07-13T15:04:20;3.05;;;1.40;;
53890;SDS011;41337;51.400;-2.342;2023-07-13T15:09:21;1.73;;;1.08;;
53890;SDS011;41337;51.400;-2.342;2023-07-13T15:14:22;3.38;;;1.40;;
53890;SDS011;41337;51.400;-2.342;2023-07-13T15:19:25;4.82;;;1.40;;
53890;SDS011;41337;51.400;-2.342;2023-07-13T15:24:29;3.80;;;1.30;;
53890;SDS011;41337;51.400;-2.342;2023-07-13T15:29:31;3.97;;;1.45;;
53890;SDS011;41337;51.400;-2.342;2023-07-13T15:34:32;1.30;;;0.90;;
53890;SDS011;41337;51.400;-2.342;2023-07-13T15:39:33;3.13;;;1.10;;
53890;SDS011;41337;51.400;-2.342;2023-07-13T15:44:35;1.63;;;0.88;;
53890;SDS011;41337;51.400;-2.342;2023-07-13T15:49:36;1.33;;;0.93;;
53890;SDS011;41337;51.400;-2.342;2023-07-13T15:54:40;2.10;;;0.98;;
53890;SDS011;41337;51.400;-2.342;2023-07-13T15:59:42;3.30;;;1.17;;
53890;SDS011;41337;51.400;-2.342;2023-07-13T16:04:44;1.67;;;0.98;;
53890;SDS011;41337;51.400;-2.342;2023-07-13T16:09:45;6.20;;;1.00;;
53890;SDS011;41337;51.400;-2.342;2023-07-13T16:14:47;4.63;;;1.35;;
53890;SDS011;41337;51.400;-2.342;2023-07-13T16:19:49;1.38;;;1.00;;
53890;SDS011;41337;51.400;-2.342;2023-07-13T16:24:50;1.42;;;1.27;;
53890;SDS011;41337;51.400;-2.342;2023-07-13T16:29:55;1.48;;;1.05;;
53890;SDS011;41337;51.400;-2.342;2023-07-13T16:34:56;1.60;;;1.30;;
53890;SDS011;41337;51.400;-2.342;2023-07-13T16:39:57;3.33;;;1.20;;
53890;SDS011;41337;51.400;-2.342;2023-07-13T16:45:00;3.28;;;1.15;;
53890;SDS011;41337;51.400;-2.342;2023-07-13T16:50:01;3.08;;;1.00;;
53890;SDS011;41337;51.400;-2.342;2023-07-13T16:55:04;3.60;;;1.30;;
53890;SDS011;41337;51.400;-2.342;2023-07-13T17:00:11;3.88;;;1.17;;
53890;SDS011;41337;51.400;-2.342;2023-07-13T17:05:30;2.38;;;1.40;;
53890;SDS011;41337;51.400;-2.342;2023-07-13T17:10:43;2.30;;;1.00;;
53890;SDS011;41337;51.400;-2.342;2023-07-13T17:15:46;2.55;;;1.20;;
53890;SDS011;41337;51.400;-2.342;2023-07-13T17:20:55;4.68;;;1.88;;
53890;SDS011;41337;51.400;-2.342;2023-07-13T17:25:58;2.67;;;1.30;;
53890;SDS011;41337;51.400;-2.342;2023-07-13T17:31:01;2.92;;;1.42;;
53890;SDS011;41337;51.400;-2.342;2023-07-13T17:36:06;3.25;;;1.70;;
53890;SDS011;41337;51.400;-2.342;2023-07-13T17:41:16;5.05;;;1.38;;
53890;SDS011;41337;51.400;-2.342;2023-07-13T17:46:29;1.45;;;0.98;;
53890;SDS011;41337;51.400;-2.342;2023-07-13T17:51:32;1.75;;;1.23;;
53890;SDS011;41337;51.400;-2.342;2023-07-13T17:56:33;1.33;;;1.15;;
53890;SDS011;41337;51.400;-2.342;2023-07-13T18:01:34;5.53;;;1.50;;
53890;SDS011;41337;51.400;-2.342;2023-07-13T18:06:41;4.10;;;1.33;;
53890;SDS011;41337;51.400;-2.342;2023-07-13T18:11:52;1.40;;;1.27;;
53890;SDS011;41337;51.400;-2.342;2023-07-13T18:16:56;1.88;;;1.33;;
53890;SDS011;41337;51.400;-2.342;2023-07-13T18:22:02;3.30;;;1.30;;
53890;SDS011;41337;51.400;-2.342;2023-07-13T18:27:10;3.10;;;1.70;;
53890;SDS011;41337;51.400;-2.342;2023-07-13T18:32:15;2.17;;;1.10;;
53890;SDS011;41337;51.400;-2.342;2023-07-13T18:37:20;2.22;;;1.13;;
53890;SDS011;41337;51.400;-2.342;2023-07-13T18:42:23;3.22;;;1.10;;
53890;SDS011;41337;51.400;-2.342;2023-07-13T18:47:24;3.92;;;1.20;;
53890;SDS011;41337;51.400;-2.342;2023-07-13T18:52:29;4.80;;;1.85;;
53890;SDS011;41337;51.400;-2.342;2023-07-13T18:57:30;2.00;;;1.25;;
53890;SDS011;41337;51.400;-2.342;2023-07-13T19:02:31;3.42;;;1.45;;
53890;SDS011;41337;51.400;-2.342;2023-07-13T19:07:32;4.03;;;1.58;;
53890;SDS011;41337;51.400;-2.342;2023-07-13T19:12:33;2.20;;;1.35;;
53890;SDS011;41337;51.400;-2.342;2023-07-13T19:17:35;2.50;;;1.55;;
53890;SDS011;41337;51.400;-2.342;2023-07-13T19:22:36;5.75;;;1.80;;
53890;SDS011;41337;51.400;-2.342;2023-07-13T19:27:38;2.85;;;1.60;;
53890;SDS011;41337;51.400;-2.342;2023-07-13T19:32:39;2.47;;;1.75;;
53890;SDS011;41337;51.400;-2.342;2023-07-13T19:37:41;3.42;;;1.75;;
53890;SDS011;41337;51.400;-2.342;2023-07-13T19:42:42;4.10;;;1.55;;
53890;SDS011;41337;51.400;-2.342;2023-07-13T19:47:43;3.40;;;1.70;;
53890;SDS011;41337;51.400;-2.342;2023-07-13T19:52:48;4.18;;;1.60;;
53890;SDS011;41337;51.400;-2.342;2023-07-13T19:57:51;3.53;;;1.70;;
53890;SDS011;41337;51.400;-2.342;2023-07-13T20:02:53;4.40;;;1.80;;
53890;SDS011;41337;51.400;-2.342;2023-07-13T20:07:58;2.72;;;2.05;;
53890;SDS011;41337;51.400;-2.342;2023-07-13T20:13:00;3.05;;;1.90;;
53890;SDS011;41337;51.400;-2.342;2023-07-13T20:18:01;6.22;;;2.67;;
53890;SDS011;41337;51.400;-2.342;2023-07-13T20:23:09;3.35;;;1.27;;
53890;SDS011;41337;51.400;-2.342;2023-07-13T20:28:14;4.85;;;1.90;;
53890;SDS011;41337;51.400;-2.342;2023-07-13T20:33:16;3.92;;;1.70;;
53890;SDS011;41337;51.400;-2.342;2023-07-13T20:38:19;3.72;;;2.08;;
53890;SDS011;41337;51.400;-2.342;2023-07-13T20:43:21;5.22;;;2.38;;
53890;SDS011;41337;51.400;-2.342;2023-07-13T20:53:47;4.28;;;2.35;;
53890;SDS011;41337;51.400;-2.342;2023-07-13T20:58:53;3.22;;;2.20;;
53890;SDS011;41337;51.400;-2.342;2023-07-13T21:03:55;3.38;;;2.17;;
53890;SDS011;41337;51.400;-2.342;2023-07-13T21:08:58;6.25;;;2.28;;
53890;SDS011;41337;51.400;-2.342;2023-07-13T21:14:00;5.35;;;2.00;;
53890;SDS011;41337;51.400;-2.342;2023-07-13T21:19:01;3.47;;;2.60;;
53890;SDS011;41337;51.400;-2.342;2023-07-13T21:24:02;4.45;;;2.40;;
53890;SDS011;41337;51.400;-2.342;2023-07-13T21:29:03;4.03;;;2.13;;
53890;SDS011;41337;51.400;-2.342;2023-07-13T21:34:08;4.57;;;2.28;;
53890;SDS011;41337;51.400;-2.342;2023-07-13T21:39:16;3.50;;;1.77;;
53890;SDS011;41337;51.400;-2.342;2023-07-13T21:49:27;5.50;;;2.35;;
53890;SDS011;41337;51.400;-2.342;2023-07-13T21:54:28;5.35;;;2.08;;
53890;SDS011;41337;51.400;-2.342;2023-07-13T21:59:29;3.28;;;2.70;;
53890;SDS011;41337;51.400;-2.342;2023-07-13T22:04:29;5.95;;;2.45;;
53890;SDS011;41337;51.400;-2.342;2023-07-13T22:09:30;4.60;;;1.90;;
53890;SDS011;41337;51.400;-2.342;2023-07-13T22:14:31;4.47;;;2.95;;
53890;SDS011;41337;51.400;-2.342;2023-07-13T22:19:32;3.00;;;2.10;;
53890;SDS011;41337;51.400;-2.342;2023-07-13T22:24:33;3.95;;;2.20;;
53890;SDS011;41337;51.400;-2.342;2023-07-13T22:29:34;4.95;;;2.08;;
53890;SDS011;41337;51.400;-2.342;2023-07-13T22:34:35;4.53;;;2.65;;
53890;SDS011;41337;51.400;-2.342;2023-07-13T22:39:36;8.65;;;2.17;;
53890;SDS011;41337;51.400;-2.342;2023-07-13T22:44:37;7.68;;;2.47;;
53890;SDS011;41337;51.400;-2.342;2023-07-13T22:49:38;5.00;;;2.55;;
53890;SDS011;41337;51.400;-2.342;2023-07-13T22:54:39;7.38;;;2.42;;
53890;SDS011;41337;51.400;-2.342;2023-07-13T22:59:42;6.72;;;2.67;;
53890;SDS011;41337;51.400;-2.342;2023-07-13T23:04:43;7.60;;;2.90;;
53890;SDS011;41337;51.400;-2.342;2023-07-13T23:09:44;7.43;;;2.20;;
53890;SDS011;41337;51.400;-2.342;2023-07-13T23:14:46;6.38;;;2.58;;
53890;SDS011;41337;51.400;-2.342;2023-07-13T23:19:47;3.40;;;2.30;;
53890;SDS011;41337;51.400;-2.342;2023-07-13T23:24:47;6.85;;;2.78;;
53890;SDS011;41337;51.400;-2.342;2023-07-13T23:29:48;4.15;;;2.92;;
53890;SDS011;41337;51.400;-2.342;2023-07-13T23:34:49;5.60;;;2.75;;
53890;SDS011;41337;51.400;-2.342;2023-07-13T23:39:50;9.02;;;3.13;;
53890;SDS011;41337;51.400;-2.342;2023-07-13T23:44:50;7.15;;;3.38;;
53890;SDS011;41337;51.400;-2.342;2023-07-13T23:49:51;8.60;;;2.88;;
53890;SDS011;41337;51.400;-2.342;2023-07-13T23:54:55;4.60;;;2.42;;
53890;SDS011;41337;51.400;-2.342;2023-07-13T23:59:56;3.38;;;2.45;;
